Relevés horaires Beauvechain (Belgique)


Relevés horaires à Beauvechain - Samedi 08 Juill. 2017
Heure UTC1 Température [°C] Vent [km/h] Hum. [%] Pres.4 [hPa] Visi. [Km] Nébu. [octa] Préc.5 [mm] Cond.
2m. Res. Ros. Dir.2 Vit. Moy. Raf.3
23:00 16.5 16.5 13.5 NNO 1.9 -- 7.4 82 1018(0.5/3h) 20 -- -- --
22:00 16.3 16.3 13.6 NNO 5.6 -- 7.4 84 1017.7(0.3/3h) 20 -- -- --
21:00 17.3 17.3 14.1 NNO 1.9 -- 13.0 81 1017.7(0.4/3h) 20 -- -- --
20:00 18.7 18.7 14.2 NNO 1.9 -- 9.3 75 1017.2(0.0/3h) 20 -- -- --
19:00 20.6 20.6 14.5 NO 5.6 -- 13.0 68 1017.2(0.1/3h) 20 -- -- --
18:00 21.7 21.7 14.4 NO 7.4 -- 14.8 63 1017.1(0.1/3h) 20 -- -- --
17:00 22.2 22.2 15.2 NO 7.4 -- 14.8 65 1017.1(0.1/3h) 20 -- -- --
16:00 22.4 22.4 16.1 NNO 9.3 -- 14.8 68 1017(-0.3/3h) 20 -- -- --
15:00 24.7 24.7 17.5 NO 11.1 -- 14.8 64 1016.7(-0.6/3h) 20 -- -- --
14:00 24.8 24.8 14.3 O 9.3 -- 13.0 52 1016.7(-0.5/3h) 20 -- -- --
13:00 24.7 24.7 15.9 O 7.4 -- 13.0 58 1017.2(-0.2/3h) 20 -- -- --
12:00 24.2 24.2 16.4 O 7.4 -- 13.0 62 1017.3(0.3/3h) 20 -- -- --
11:00 23.6 23.6 15.4 O 7.4 -- 13.0 60 1017.5(0.4/3h) 19 -- -- --
10:00 23.3 23.3 15.9 SO 7.4 -- 11.1 63 1017.5(0.7/3h) 20 -- -- --
09:00 21.4 21.4 15.5 OSO 7.4 -- 13.0 69 1017.2(0.5/3h) 20 -- -- --
08:00 20.1 20.1 14.1 O 3.7 -- 9.3 68 1017.2(0.4/3h) 19 -- -- --
07:00 19.1 19.1 13.2 SO 5.6 -- 7.4 69 1017(0.2/3h) 20 -- -- --
06:00 16.9 16.9 12.0 SO 3.7 -- 7.4 73 1016.8(0.1/3h) 20 -- -- --
05:00 16.2 16.2 11.7 SSO 5.6 -- 5.6 75 1017(0.0/3h) 20 -- -- --
04:00 16.1 16.1 12.0 SSO 5.6 -- 5.6 77 1016.8(-0.1/3h) 20 -- -- --
03:00 16.8 16.8 13.6 NNO 1.9 -- 3.7 81 1016.7(-0.6/3h) 20 -- -- --
02:00 17.6 17.6 14.7 NNO 1.9 -- 3.7 83 1016.8(-0.5/3h) 15 -- -- --
01:00 17.5 17.5 14.3 NNO 1.9 -- 3.7 82 1017(-0.6/3h) 20 -- -- --
00:00 18.5 18.5 14.5 NNO 1.9 -- 9.3 78 1017.3(-0.1/3h) 20 -- -- --

1 Coordinated Universal Time. Actuellement il est 09:00 locale et 08:00 UTC.

2 Le vent souffle depuis la direction indiquée vers la direction oposée.

3 Les rafales max. sont disponible 40 min après l'heure du relevé.

4 Pour les stations d'altitude (plus de 600m) le géopotentiel du niveau le plus proche de la pression obligatoire est indiqué.

5 Les stations disposant d'un diffuseur peuvent indiquer "trace". Cela signifie que des précipitations ont touchés le sol mais que la quantité est inférieure à 0.1 mm.

Récapitulatif de la journée
Température [°C] Vent [km/h] Ensoleillement4 [h] Precipitations totale5 [mm] Pression [Hpa]
Min1 Max.2 Moy.3 Max. Min Max.
15.8 26.6 0 14.8 0 h 0 min 0 1016.7 1018.0

1 Température minimale relevée entre 18:00 UTC la veille et 18:00 UTC le jour donné.

2 Température maximale relevée entre 06:00 UTC le jour donné et 06:00 UTC le lendemain.

3 Vent moyen de la journée basé sur les relevés horaires.

4 Ensoleillement en heures relevé entre 06:00 UTC la veille et 06:00 UTC le jour donné.

5 Précipitations totales tombées entre 06:00 UTC la jour donné et 06:00 UTC le lendemain.

Graphiques horaires